sensor_id;sensor_type;location;lat;lon;timestamp;pressure;altitude;pressure_sealevel;temperature;humidity
74336;BME280;62755;-33.398;-70.572;2023-03-23T00:01:21;93064.81;;;28.75;24.34
74336;BME280;62755;-33.398;-70.572;2023-03-23T00:04:13;93062.59;;;28.73;24.45
74336;BME280;62755;-33.398;-70.572;2023-03-23T00:07:02;93062.81;;;28.75;24.25
74336;BME280;62755;-33.398;-70.572;2023-03-23T00:09:52;93066.59;;;28.72;24.03
74336;BME280;62755;-33.398;-70.572;2023-03-23T00:12:41;93058.31;;;28.59;25.08
74336;BME280;62755;-33.398;-70.572;2023-03-23T00:15:31;93061.75;;;28.46;24.98
74336;BME280;62755;-33.398;-70.572;2023-03-23T00:18:24;93058.47;;;28.48;25.30
74336;BME280;62755;-33.398;-70.572;2023-03-23T00:21:14;93051.47;;;28.47;25.09
74336;BME280;62755;-33.398;-70.572;2023-03-23T00:24:05;93056.16;;;28.52;25.11
74336;BME280;62755;-33.398;-70.572;2023-03-23T00:26:56;93061.94;;;28.80;25.01
74336;BME280;62755;-33.398;-70.572;2023-03-23T00:29:45;93062.16;;;28.69;24.54
74336;BME280;62755;-33.398;-70.572;2023-03-23T00:32:34;93053.22;;;28.63;24.37
74336;BME280;62755;-33.398;-70.572;2023-03-23T00:35:25;93056.94;;;28.66;24.83
74336;BME280;62755;-33.398;-70.572;2023-03-23T00:38:15;93058.63;;;28.37;25.47
74336;BME280;62755;-33.398;-70.572;2023-03-23T00:41:05;93057.41;;;28.51;24.94
74336;BME280;62755;-33.398;-70.572;2023-03-23T00:43:56;93064.59;;;28.59;25.10
74336;BME280;62755;-33.398;-70.572;2023-03-23T00:46:47;93062.75;;;28.62;25.30
74336;BME280;62755;-33.398;-70.572;2023-03-23T00:49:38;93063.78;;;28.46;25.79
74336;BME280;62755;-33.398;-70.572;2023-03-23T00:52:29;93071.13;;;28.56;25.84
74336;BME280;62755;-33.398;-70.572;2023-03-23T00:55:18;93065.91;;;28.53;25.57
74336;BME280;62755;-33.398;-70.572;2023-03-23T00:58:08;93062.03;;;28.61;25.53
74336;BME280;62755;-33.398;-70.572;2023-03-23T01:01:02;93070.22;;;28.67;26.29
74336;BME280;62755;-33.398;-70.572;2023-03-23T01:03:52;93071.22;;;28.51;26.56
74336;BME280;62755;-33.398;-70.572;2023-03-23T01:06:49;93072.50;;;28.50;25.87
74336;BME280;62755;-33.398;-70.572;2023-03-23T01:09:41;93077.13;;;28.42;26.06
74336;BME280;62755;-33.398;-70.572;2023-03-23T01:12:31;93073.22;;;28.19;27.05
74336;BME280;62755;-33.398;-70.572;2023-03-23T01:15:21;93071.22;;;28.19;28.18
74336;BME280;62755;-33.398;-70.572;2023-03-23T01:18:10;93072.84;;;28.28;27.80
74336;BME280;62755;-33.398;-70.572;2023-03-23T01:21:04;93073.28;;;28.32;27.35
74336;BME280;62755;-33.398;-70.572;2023-03-23T01:23:53;93068.00;;;28.47;27.51
74336;BME280;62755;-33.398;-70.572;2023-03-23T01:26:45;93068.91;;;28.55;27.12
74336;BME280;62755;-33.398;-70.572;2023-03-23T01:29:34;93052.25;;;28.29;27.51
74336;BME280;62755;-33.398;-70.572;2023-03-23T01:32:24;93063.41;;;28.36;27.80
74336;BME280;62755;-33.398;-70.572;2023-03-23T01:35:13;93071.72;;;28.18;28.55
74336;BME280;62755;-33.398;-70.572;2023-03-23T01:38:02;93072.13;;;28.09;28.79
74336;BME280;62755;-33.398;-70.572;2023-03-23T01:40:52;93074.94;;;27.85;28.84
74336;BME280;62755;-33.398;-70.572;2023-03-23T01:43:57;93076.44;;;28.04;29.28
74336;BME280;62755;-33.398;-70.572;2023-03-23T01:46:48;93060.34;;;28.08;28.99
74336;BME280;62755;-33.398;-70.572;2023-03-23T01:49:39;93066.19;;;28.05;28.43
74336;BME280;62755;-33.398;-70.572;2023-03-23T01:52:30;93070.63;;;28.08;29.63
74336;BME280;62755;-33.398;-70.572;2023-03-23T01:55:21;93061.84;;;27.91;29.03
74336;BME280;62755;-33.398;-70.572;2023-03-23T01:58:11;93066.06;;;27.92;29.29
74336;BME280;62755;-33.398;-70.572;2023-03-23T02:01:05;93071.81;;;27.75;30.15
74336;BME280;62755;-33.398;-70.572;2023-03-23T02:03:56;93065.72;;;27.63;30.28
74336;BME280;62755;-33.398;-70.572;2023-03-23T02:06:46;93063.19;;;27.65;30.26
74336;BME280;62755;-33.398;-70.572;2023-03-23T02:09:35;93056.00;;;27.75;30.30
74336;BME280;62755;-33.398;-70.572;2023-03-23T02:12:25;93064.22;;;27.81;30.53
74336;BME280;62755;-33.398;-70.572;2023-03-23T02:15:14;93051.16;;;27.81;30.19
74336;BME280;62755;-33.398;-70.572;2023-03-23T02:18:10;93053.13;;;27.49;28.46
74336;BME280;62755;-33.398;-70.572;2023-03-23T02:21:27;93045.97;;;27.41;29.42
74336;BME280;62755;-33.398;-70.572;2023-03-23T02:28:11;93048.63;;;27.46;27.92
74336;BME280;62755;-33.398;-70.572;2023-03-23T02:31:17;93040.16;;;27.44;28.54
74336;BME280;62755;-33.398;-70.572;2023-03-23T02:34:17;93034.88;;;27.46;29.48
74336;BME280;62755;-33.398;-70.572;2023-03-23T02:37:11;93031.16;;;27.62;30.17
74336;BME280;62755;-33.398;-70.572;2023-03-23T02:40:05;93030.97;;;27.36;30.58
74336;BME280;62755;-33.398;-70.572;2023-03-23T02:43:01;93032.03;;;27.33;30.66
74336;BME280;62755;-33.398;-70.572;2023-03-23T02:45:52;93035.31;;;27.50;29.72
74336;BME280;62755;-33.398;-70.572;2023-03-23T02:48:43;93034.88;;;27.46;29.90
74336;BME280;62755;-33.398;-70.572;2023-03-23T02:51:37;93017.56;;;27.27;29.50
74336;BME280;62755;-33.398;-70.572;2023-03-23T02:54:27;93024.53;;;27.10;29.97
74336;BME280;62755;-33.398;-70.572;2023-03-23T02:57:17;93021.25;;;27.11;29.52
74336;BME280;62755;-33.398;-70.572;2023-03-23T03:00:10;93021.97;;;26.93;30.06
74336;BME280;62755;-33.398;-70.572;2023-03-23T03:03:01;93010.03;;;26.85;29.48
74336;BME280;62755;-33.398;-70.572;2023-03-23T03:05:58;93015.19;;;26.94;28.55
74336;BME280;62755;-33.398;-70.572;2023-03-23T03:08:56;93012.31;;;27.05;28.12
74336;BME280;62755;-33.398;-70.572;2023-03-23T03:11:54;93009.81;;;26.59;28.38
74336;BME280;62755;-33.398;-70.572;2023-03-23T03:14:51;93010.81;;;26.56;28.54
74336;BME280;62755;-33.398;-70.572;2023-03-23T03:17:46;93003.84;;;26.55;28.18
74336;BME280;62755;-33.398;-70.572;2023-03-23T03:20:43;93004.38;;;26.77;28.03
74336;BME280;62755;-33.398;-70.572;2023-03-23T03:23:35;92999.84;;;26.80;27.75
74336;BME280;62755;-33.398;-70.572;2023-03-23T03:26:31;93013.56;;;26.56;27.63
74336;BME280;62755;-33.398;-70.572;2023-03-23T03:29:23;93009.34;;;26.55;28.75
74336;BME280;62755;-33.398;-70.572;2023-03-23T03:32:16;93009.81;;;26.59;28.39
74336;BME280;62755;-33.398;-70.572;2023-03-23T03:35:07;92991.06;;;26.57;27.79
74336;BME280;62755;-33.398;-70.572;2023-03-23T03:37:57;93006.81;;;26.57;28.22
74336;BME280;62755;-33.398;-70.572;2023-03-23T03:40:54;93003.47;;;26.64;28.16
74336;BME280;62755;-33.398;-70.572;2023-03-23T03:43:46;93004.06;;;26.57;28.63
74336;BME280;62755;-33.398;-70.572;2023-03-23T03:46:36;93006.16;;;26.75;27.63
74336;BME280;62755;-33.398;-70.572;2023-03-23T03:49:25;93007.75;;;26.65;27.41
74336;BME280;62755;-33.398;-70.572;2023-03-23T03:52:15;93001.53;;;26.35;27.93
74336;BME280;62755;-33.398;-70.572;2023-03-23T03:55:05;93000.22;;;26.71;27.52
74336;BME280;62755;-33.398;-70.572;2023-03-23T03:57:55;93006.81;;;26.57;29.03
74336;BME280;62755;-33.398;-70.572;2023-03-23T04:00:46;93006.06;;;26.56;27.75
74336;BME280;62755;-33.398;-70.572;2023-03-23T04:03:36;93007.63;;;26.76;28.09
74336;BME280;62755;-33.398;-70.572;2023-03-23T04:06:26;93005.72;;;26.71;28.13
74336;BME280;62755;-33.398;-70.572;2023-03-23T04:09:15;92997.19;;;26.69;27.76
74336;BME280;62755;-33.398;-70.572;2023-03-23T04:12:06;93003.03;;;26.60;27.73
74336;BME280;62755;-33.398;-70.572;2023-03-23T04:14:55;92999.34;;;26.52;27.43
74336;BME280;62755;-33.398;-70.572;2023-03-23T04:17:46;92999.19;;;26.44;27.67
74336;BME280;62755;-33.398;-70.572;2023-03-23T04:20:37;92996.94;;;26.43;27.45
74336;BME280;62755;-33.398;-70.572;2023-03-23T04:23:27;92988.00;;;26.37;27.96
74336;BME280;62755;-33.398;-70.572;2023-03-23T04:26:18;92995.00;;;26.38;28.02
74336;BME280;62755;-33.398;-70.572;2023-03-23T04:29:07;93005.44;;;26.45;27.78
74336;BME280;62755;-33.398;-70.572;2023-03-23T04:31:56;92997.88;;;26.51;27.77
74336;BME280;62755;-33.398;-70.572;2023-03-23T04:34:49;92997.34;;;26.52;27.99
74336;BME280;62755;-33.398;-70.572;2023-03-23T04:37:39;93003.38;;;26.51;28.31
74336;BME280;62755;-33.398;-70.572;2023-03-23T04:40:29;92998.63;;;26.51;27.23
74336;BME280;62755;-33.398;-70.572;2023-03-23T04:43:18;92995.97;;;26.64;28.00
74336;BME280;62755;-33.398;-70.572;2023-03-23T04:46:08;93010.34;;;26.52;27.99
74336;BME280;62755;-33.398;-70.572;2023-03-23T04:48:58;93007.56;;;26.57;27.01
74336;BME280;62755;-33.398;-70.572;2023-03-23T04:51:50;93010.97;;;26.63;28.08
74336;BME280;62755;-33.398;-70.572;2023-03-23T04:54:40;93006.22;;;26.64;27.66
74336;BME280;62755;-33.398;-70.572;2023-03-23T04:57:29;92996.28;;;26.61;27.43
74336;BME280;62755;-33.398;-70.572;2023-03-23T05:00:20;93013.59;;;26.80;28.52
74336;BME280;62755;-33.398;-70.572;2023-03-23T05:03:10;93006.69;;;26.68;27.76
74336;BME280;62755;-33.398;-70.572;2023-03-23T05:06:04;93007.38;;;26.26;29.14
74336;BME280;62755;-33.398;-70.572;2023-03-23T05:08:55;93002.94;;;26.17;28.98
74336;BME280;62755;-33.398;-70.572;2023-03-23T05:11:44;93010.19;;;26.15;29.32
74336;BME280;62755;-33.398;-70.572;2023-03-23T05:14:33;93013.16;;;26.17;29.69
74336;BME280;62755;-33.398;-70.572;2023-03-23T05:17:23;92997.47;;;26.12;29.46
74336;BME280;62755;-33.398;-70.572;2023-03-23T05:20:13;92986.91;;;26.21;29.83
74336;BME280;62755;-33.398;-70.572;2023-03-23T05:23:06;92983.91;;;26.19;29.33
74336;BME280;62755;-33.398;-70.572;2023-03-23T05:25:58;92999.91;;;26.21;30.02
74336;BME280;62755;-33.398;-70.572;2023-03-23T05:28:49;92988.44;;;25.81;30.21
74336;BME280;62755;-33.398;-70.572;2023-03-23T05:31:40;92996.38;;;25.90;29.81
74336;BME280;62755;-33.398;-70.572;2023-03-23T05:34:29;92988.19;;;25.79;30.27
74336;BME280;62755;-33.398;-70.572;2023-03-23T05:37:19;92987.81;;;25.64;30.59
74336;BME280;62755;-33.398;-70.572;2023-03-23T05:40:09;92986.44;;;25.82;30.15
74336;BME280;62755;-33.398;-70.572;2023-03-23T05:43:00;92976.59;;;25.62;30.43
74336;BME280;62755;-33.398;-70.572;2023-03-23T05:45:49;92972.34;;;25.61;30.52
74336;BME280;62755;-33.398;-70.572;2023-03-23T05:48:39;92977.72;;;25.37;30.23
74336;BME280;62755;-33.398;-70.572;2023-03-23T05:51:28;92975.25;;;25.28;30.24
74336;BME280;62755;-33.398;-70.572;2023-03-23T05:54:17;92977.94;;;24.93;30.99
74336;BME280;62755;-33.398;-70.572;2023-03-23T05:57:07;92968.59;;;25.18;30.66
74336;BME280;62755;-33.398;-70.572;2023-03-23T05:59:58;92965.84;;;25.23;30.25
74336;BME280;62755;-33.398;-70.572;2023-03-23T06:02:55;92965.31;;;25.25;30.30
74336;BME280;62755;-33.398;-70.572;2023-03-23T06:05:45;92960.31;;;25.29;30.20
74336;BME280;62755;-33.398;-70.572;2023-03-23T06:08:34;92960.06;;;25.27;29.94
74336;BME280;62755;-33.398;-70.572;2023-03-23T06:11:24;92956.78;;;25.34;30.37
74336;BME280;62755;-33.398;-70.572;2023-03-23T06:14:14;92963.81;;;25.30;30.88
74336;BME280;62755;-33.398;-70.572;2023-03-23T06:17:06;92965.34;;;25.14;30.58
74336;BME280;62755;-33.398;-70.572;2023-03-23T06:19:55;92961.44;;;25.04;30.63
74336;BME280;62755;-33.398;-70.572;2023-03-23T06:22:44;92953.31;;;25.28;30.38
74336;BME280;62755;-33.398;-70.572;2023-03-23T06:25:34;92962.13;;;25.15;30.68
74336;BME280;62755;-33.398;-70.572;2023-03-23T06:28:23;92954.78;;;24.88;30.69
74336;BME280;62755;-33.398;-70.572;2023-03-23T06:31:13;92952.97;;;25.02;30.89
74336;BME280;62755;-33.398;-70.572;2023-03-23T06:34:06;92938.56;;;24.85;30.57
74336;BME280;62755;-33.398;-70.572;2023-03-23T06:36:55;92956.16;;;25.11;30.64
74336;BME280;62755;-33.398;-70.572;2023-03-23T06:39:44;92955.66;;;25.13;30.64
74336;BME280;62755;-33.398;-70.572;2023-03-23T06:42:35;92947.78;;;24.87;31.27
74336;BME280;62755;-33.398;-70.572;2023-03-23T06:45:24;92946.09;;;24.68;31.13
74336;BME280;62755;-33.398;-70.572;2023-03-23T06:48:14;92940.38;;;24.66;31.40
74336;BME280;62755;-33.398;-70.572;2023-03-23T06:51:06;92943.88;;;24.55;31.39
74336;BME280;62755;-33.398;-70.572;2023-03-23T06:53:55;92935.91;;;24.52;31.28
74336;BME280;62755;-33.398;-70.572;2023-03-23T06:56:45;92940.16;;;24.53;31.77
74336;BME280;62755;-33.398;-70.572;2023-03-23T06:59:34;92937.69;;;24.43;31.35
74336;BME280;62755;-33.398;-70.572;2023-03-23T07:02:23;92939.19;;;24.45;31.62
74336;BME280;62755;-33.398;-70.572;2023-03-23T07:05:13;92934.69;;;24.41;31.63
74336;BME280;62755;-33.398;-70.572;2023-03-23T07:08:05;92933.28;;;24.18;31.80
74336;BME280;62755;-33.398;-70.572;2023-03-23T07:10:54;92931.03;;;23.95;32.23
74336;BME280;62755;-33.398;-70.572;2023-03-23T07:13:44;92922.34;;;24.07;31.96
74336;BME280;62755;-33.398;-70.572;2023-03-23T07:16:33;92920.31;;;24.08;31.73
74336;BME280;62755;-33.398;-70.572;2023-03-23T07:19:23;92922.84;;;23.78;32.12
74336;BME280;62755;-33.398;-70.572;2023-03-23T07:22:12;92904.69;;;23.59;32.69
74336;BME280;62755;-33.398;-70.572;2023-03-23T07:25:04;92911.88;;;23.89;31.98
74336;BME280;62755;-33.398;-70.572;2023-03-23T07:27:53;92917.84;;;23.93;32.09
74336;BME280;62755;-33.398;-70.572;2023-03-23T07:30:43;92914.28;;;24.31;31.27
74336;BME280;62755;-33.398;-70.572;2023-03-23T07:33:32;92919.50;;;24.46;31.52
74336;BME280;62755;-33.398;-70.572;2023-03-23T07:36:22;92920.69;;;24.62;31.39
74336;BME280;62755;-33.398;-70.572;2023-03-23T07:39:11;92910.13;;;24.88;31.44
74336;BME280;62755;-33.398;-70.572;2023-03-23T07:42:03;92912.03;;;25.04;31.42
74336;BME280;62755;-33.398;-70.572;2023-03-23T07:44:54;92910.97;;;25.12;31.30
74336;BME280;62755;-33.398;-70.572;2023-03-23T07:47:43;92915.34;;;25.32;31.46
74336;BME280;62755;-33.398;-70.572;2023-03-23T07:50:32;92908.91;;;25.30;31.21
74336;BME280;62755;-33.398;-70.572;2023-03-23T07:53:23;92903.97;;;25.17;31.73
74336;BME280;62755;-33.398;-70.572;2023-03-23T07:56:13;92903.91;;;25.28;31.35
74336;BME280;62755;-33.398;-70.572;2023-03-23T07:59:07;92904.94;;;25.25;31.51
74336;BME280;62755;-33.398;-70.572;2023-03-23T08:01:58;92894.84;;;25.03;31.23
74336;BME280;62755;-33.398;-70.572;2023-03-23T08:04:47;92896.31;;;25.10;31.11
74336;BME280;62755;-33.398;-70.572;2023-03-23T08:07:37;92902.34;;;24.97;31.23
74336;BME280;62755;-33.398;-70.572;2023-03-23T08:10:26;92896.06;;;24.51;31.87
74336;BME280;62755;-33.398;-70.572;2023-03-23T08:13:16;92896.84;;;24.40;31.76
74336;BME280;62755;-33.398;-70.572;2023-03-23T08:16:08;92886.13;;;24.42;31.79
74336;BME280;62755;-33.398;-70.572;2023-03-23T08:18:58;92888.13;;;24.36;31.82
74336;BME280;62755;-33.398;-70.572;2023-03-23T08:21:47;92883.91;;;24.29;31.61
74336;BME280;62755;-33.398;-70.572;2023-03-23T08:24:36;92885.66;;;24.32;31.66
74336;BME280;62755;-33.398;-70.572;2023-03-23T08:27:26;92888.66;;;24.29;31.34
74336;BME280;62755;-33.398;-70.572;2023-03-23T08:30:18;92877.94;;;24.25;31.22
74336;BME280;62755;-33.398;-70.572;2023-03-23T08:33:09;92878.72;;;24.20;31.39
74336;BME280;62755;-33.398;-70.572;2023-03-23T08:36:00;92873.28;;;24.09;31.50
74336;BME280;62755;-33.398;-70.572;2023-03-23T08:38:49;92880.47;;;24.12;31.91
74336;BME280;62755;-33.398;-70.572;2023-03-23T08:41:40;92876.91;;;24.39;31.71
74336;BME280;62755;-33.398;-70.572;2023-03-23T08:44:30;92873.44;;;24.33;31.56
74336;BME280;62755;-33.398;-70.572;2023-03-23T08:47:19;92877.34;;;24.55;32.06
74336;BME280;62755;-33.398;-70.572;2023-03-23T08:50:13;92878.78;;;24.67;31.87
74336;BME280;62755;-33.398;-70.572;2023-03-23T08:53:03;92873.31;;;24.72;31.80
74336;BME280;62755;-33.398;-70.572;2023-03-23T08:55:52;92875.72;;;24.87;31.51
74336;BME280;62755;-33.398;-70.572;2023-03-23T08:58:42;92888.31;;;24.55;31.59
74336;BME280;62755;-33.398;-70.572;2023-03-23T09:01:32;92876.16;;;24.39;31.56
74336;BME280;62755;-33.398;-70.572;2023-03-23T09:04:21;92876.59;;;24.54;31.10
74336;BME280;62755;-33.398;-70.572;2023-03-23T09:07:13;92861.28;;;24.23;31.09
74336;BME280;62755;-33.398;-70.572;2023-03-23T09:10:03;92888.44;;;24.21;31.10
74336;BME280;62755;-33.398;-70.572;2023-03-23T09:12:53;92889.22;;;24.05;32.04
74336;BME280;62755;-33.398;-70.572;2023-03-23T09:15:43;92880.47;;;24.23;31.81
74336;BME280;62755;-33.398;-70.572;2023-03-23T09:18:33;92890.44;;;24.21;31.48
74336;BME280;62755;-33.398;-70.572;2023-03-23T09:21:23;92881.66;;;24.28;30.68
74336;BME280;62755;-33.398;-70.572;2023-03-23T09:24:14;92887.13;;;24.33;30.05
74336;BME280;62755;-33.398;-70.572;2023-03-23T09:27:04;92889.38;;;24.40;29.84
74336;BME280;62755;-33.398;-70.572;2023-03-23T09:29:53;92886.38;;;24.38;28.95
74336;BME280;62755;-33.398;-70.572;2023-03-23T09:32:43;92884.66;;;24.30;29.06
74336;BME280;62755;-33.398;-70.572;2023-03-23T09:35:33;92866.53;;;23.99;29.33
74336;BME280;62755;-33.398;-70.572;2023-03-23T09:38:23;92885.69;;;24.16;29.46
74336;BME280;62755;-33.398;-70.572;2023-03-23T09:41:23;92887.19;;;24.17;30.12
74336;BME280;62755;-33.398;-70.572;2023-03-23T09:44:22;92887.41;;;24.24;30.18
74336;BME280;62755;-33.398;-70.572;2023-03-23T09:47:17;92883.72;;;23.89;29.86
74336;BME280;62755;-33.398;-70.572;2023-03-23T09:50:12;92890.22;;;23.75;31.27
74336;BME280;62755;-33.398;-70.572;2023-03-23T09:53:08;92890.50;;;23.60;31.56
74336;BME280;62755;-33.398;-70.572;2023-03-23T09:55:59;92887.25;;;23.62;30.81
74336;BME280;62755;-33.398;-70.572;2023-03-23T09:58:53;92885.50;;;23.64;30.68
74336;BME280;62755;-33.398;-70.572;2023-03-23T10:01:47;92881.03;;;23.72;30.64
74336;BME280;62755;-33.398;-70.572;2023-03-23T10:04:39;92884.50;;;23.78;30.71
74336;BME280;62755;-33.398;-70.572;2023-03-23T10:07:30;92874.81;;;23.44;31.72
74336;BME280;62755;-33.398;-70.572;2023-03-23T10:10:20;92873.56;;;23.45;31.41
74336;BME280;62755;-33.398;-70.572;2023-03-23T10:13:18;92879.03;;;23.67;32.04
74336;BME280;62755;-33.398;-70.572;2023-03-23T10:16:13;92880.50;;;23.79;32.42
74336;BME280;62755;-33.398;-70.572;2023-03-23T10:19:12;92868.78;;;23.84;32.66
74336;BME280;62755;-33.398;-70.572;2023-03-23T10:22:05;92871.78;;;23.81;32.54
74336;BME280;62755;-33.398;-70.572;2023-03-23T10:25:03;92883.00;;;23.77;32.22
74336;BME280;62755;-33.398;-70.572;2023-03-23T10:28:01;92882.47;;;23.84;32.68
74336;BME280;62755;-33.398;-70.572;2023-03-23T10:30:55;92882.47;;;23.84;33.08
74336;BME280;62755;-33.398;-70.572;2023-03-23T10:33:49;92892.72;;;23.78;33.33
74336;BME280;62755;-33.398;-70.572;2023-03-23T10:36:50;92894.22;;;23.79;33.36
74336;BME280;62755;-33.398;-70.572;2023-03-23T10:39:48;92895.94;;;23.93;33.04
74336;BME280;62755;-33.398;-70.572;2023-03-23T10:42:39;92893.97;;;23.77;33.32
74336;BME280;62755;-33.398;-70.572;2023-03-23T10:45:29;92895.72;;;23.80;33.78
74336;BME280;62755;-33.398;-70.572;2023-03-23T10:48:25;92888.47;;;23.77;33.27
74336;BME280;62755;-33.398;-70.572;2023-03-23T10:51:21;92906.16;;;23.71;31.92
74336;BME280;62755;-33.398;-70.572;2023-03-23T10:54:11;92900.44;;;23.74;32.36
74336;BME280;62755;-33.398;-70.572;2023-03-23T10:57:01;92908.16;;;23.76;32.50
74336;BME280;62755;-33.398;-70.572;2023-03-23T11:00:07;92909.38;;;23.91;32.86
74336;BME280;62755;-33.398;-70.572;2023-03-23T11:03:01;92903.94;;;23.80;32.61
74336;BME280;62755;-33.398;-70.572;2023-03-23T11:05:55;92914.88;;;23.80;32.37
74336;BME280;62755;-33.398;-70.572;2023-03-23T11:08:54;92908.13;;;23.87;32.64
74336;BME280;62755;-33.398;-70.572;2023-03-23T11:11:49;92910.38;;;23.88;32.40
74336;BME280;62755;-33.398;-70.572;2023-03-23T11:14:38;92916.84;;;23.96;32.29
74336;BME280;62755;-33.398;-70.572;2023-03-23T11:17:29;92915.09;;;23.82;32.57
74336;BME280;62755;-33.398;-70.572;2023-03-23T11:20:20;92920.84;;;23.51;33.59
74336;BME280;62755;-33.398;-70.572;2023-03-23T11:23:19;92916.13;;;23.57;33.13
74336;BME280;62755;-33.398;-70.572;2023-03-23T11:26:14;92930.78;;;23.43;32.63
74336;BME280;62755;-33.398;-70.572;2023-03-23T11:29:06;92925.06;;;23.41;32.15
74336;BME280;62755;-33.398;-70.572;2023-03-23T11:32:03;92932.78;;;23.42;31.79
74336;BME280;62755;-33.398;-70.572;2023-03-23T11:34:57;92929.81;;;23.46;31.61
74336;BME280;62755;-33.398;-70.572;2023-03-23T11:37:49;92927.81;;;23.63;31.80
74336;BME280;62755;-33.398;-70.572;2023-03-23T11:40:49;92936.28;;;23.76;31.77
74336;BME280;62755;-33.398;-70.572;2023-03-23T11:43:46;92938.78;;;23.74;33.11
74336;BME280;62755;-33.398;-70.572;2023-03-23T11:46:42;92949.22;;;23.59;32.96
74336;BME280;62755;-33.398;-70.572;2023-03-23T11:49:40;92955.91;;;23.36;33.00
74336;BME280;62755;-33.398;-70.572;2023-03-23T11:52:39;92948.22;;;23.51;33.11
74336;BME280;62755;-33.398;-70.572;2023-03-23T11:55:35;92951.44;;;23.61;33.19
74336;BME280;62755;-33.398;-70.572;2023-03-23T11:58:26;92956.44;;;23.73;33.40
74336;BME280;62755;-33.398;-70.572;2023-03-23T12:01:45;92956.69;;;23.75;33.87
74336;BME280;62755;-33.398;-70.572;2023-03-23T12:04:42;92967.88;;;23.55;34.52
74336;BME280;62755;-33.398;-70.572;2023-03-23T12:07:48;92959.41;;;23.47;33.38
74336;BME280;62755;-33.398;-70.572;2023-03-23T12:10:44;92944.47;;;23.43;33.21
74336;BME280;62755;-33.398;-70.572;2023-03-23T12:13:45;92964.38;;;23.43;33.33
74336;BME280;62755;-33.398;-70.572;2023-03-23T12:16:54;92965.91;;;23.55;33.24
74336;BME280;62755;-33.398;-70.572;2023-03-23T12:19:59;92969.63;;;23.75;33.32
74336;BME280;62755;-33.398;-70.572;2023-03-23T12:23:13;92966.91;;;23.64;33.24
74336;BME280;62755;-33.398;-70.572;2023-03-23T12:26:13;92975.13;;;23.69;33.32
74336;BME280;62755;-33.398;-70.572;2023-03-23T12:29:23;92973.13;;;23.64;33.05
74336;BME280;62755;-33.398;-70.572;2023-03-23T12:32:42;92972.13;;;23.89;33.22
74336;BME280;62755;-33.398;-70.572;2023-03-23T12:35:38;92969.41;;;23.84;33.27
74336;BME280;62755;-33.398;-70.572;2023-03-23T12:38:50;92976.34;;;23.90;32.97
74336;BME280;62755;-33.398;-70.572;2023-03-23T12:41:49;92973.16;;;24.03;32.61
74336;BME280;62755;-33.398;-70.572;2023-03-23T12:44:45;92979.13;;;23.96;32.58
74336;BME280;62755;-33.398;-70.572;2023-03-23T12:47:41;92981.59;;;24.10;32.86
74336;BME280;62755;-33.398;-70.572;2023-03-23T12:50:35;92988.56;;;24.22;32.77
74336;BME280;62755;-33.398;-70.572;2023-03-23T12:53:30;92980.13;;;24.09;32.84
74336;BME280;62755;-33.398;-70.572;2023-03-23T12:56:25;92981.63;;;24.21;32.32
74336;BME280;62755;-33.398;-70.572;2023-03-23T12:59:19;92983.59;;;24.26;31.69
74336;BME280;62755;-33.398;-70.572;2023-03-23T13:02:19;92984.56;;;24.34;31.89
74336;BME280;62755;-33.398;-70.572;2023-03-23T13:05:25;92981.09;;;24.28;31.51
74336;BME280;62755;-33.398;-70.572;2023-03-23T13:08:18;92977.84;;;24.30;31.35
74336;BME280;62755;-33.398;-70.572;2023-03-23T13:11:14;92970.91;;;24.23;31.10
74336;BME280;62755;-33.398;-70.572;2023-03-23T13:14:14;92988.31;;;24.37;30.88
74336;BME280;62755;-33.398;-70.572;2023-03-23T13:17:14;92985.81;;;24.45;30.93
74336;BME280;62755;-33.398;-70.572;2023-03-23T13:20:23;92986.53;;;24.39;30.36
74336;BME280;62755;-33.398;-70.572;2023-03-23T13:23:20;92990.50;;;24.50;30.76
74336;BME280;62755;-33.398;-70.572;2023-03-23T13:26:13;92993.50;;;24.63;30.41
74336;BME280;62755;-33.398;-70.572;2023-03-23T13:29:08;92991.44;;;24.69;29.81
74336;BME280;62755;-33.398;-70.572;2023-03-23T13:32:11;92990.97;;;24.76;29.51
74336;BME280;62755;-33.398;-70.572;2023-03-23T13:35:03;92996.41;;;24.87;28.88
74336;BME280;62755;-33.398;-70.572;2023-03-23T13:37:55;92972.50;;;24.82;28.63
74336;BME280;62755;-33.398;-70.572;2023-03-23T13:40:45;92991.44;;;24.85;28.56
74336;BME280;62755;-33.398;-70.572;2023-03-23T13:43:36;92995.91;;;24.94;28.83
74336;BME280;62755;-33.398;-70.572;2023-03-23T13:46:28;92988.34;;;25.11;28.41
74336;BME280;62755;-33.398;-70.572;2023-03-23T13:49:20;92988.88;;;25.04;29.31
74336;BME280;62755;-33.398;-70.572;2023-03-23T13:52:21;92986.56;;;25.19;28.86
74336;BME280;62755;-33.398;-70.572;2023-03-23T13:55:38;92973.31;;;25.23;28.22
74336;BME280;62755;-33.398;-70.572;2023-03-23T13:58:28;92973.03;;;25.26;29.03
74336;BME280;62755;-33.398;-70.572;2023-03-23T14:01:19;92977.78;;;25.26;28.80
74336;BME280;62755;-33.398;-70.572;2023-03-23T14:04:24;92978.25;;;25.30;28.57
74336;BME280;62755;-33.398;-70.572;2023-03-23T14:07:19;92985.19;;;25.42;29.00
74336;BME280;62755;-33.398;-70.572;2023-03-23T14:10:16;92976.19;;;25.47;28.61
74336;BME280;62755;-33.398;-70.572;2023-03-23T14:13:15;92977.47;;;25.41;29.34
74336;BME280;62755;-33.398;-70.572;2023-03-23T14:16:14;92978.72;;;25.45;29.02
74336;BME280;62755;-33.398;-70.572;2023-03-23T14:19:14;92965.47;;;25.49;29.42
74336;BME280;62755;-33.398;-70.572;2023-03-23T14:22:04;92975.66;;;25.54;28.68
74336;BME280;62755;-33.398;-70.572;2023-03-23T14:24:59;92979.66;;;25.53;28.94
74336;BME280;62755;-33.398;-70.572;2023-03-23T14:27:52;92982.09;;;25.62;28.90
74336;BME280;62755;-33.398;-70.572;2023-03-23T14:30:44;92976.59;;;25.62;29.23
74336;BME280;62755;-33.398;-70.572;2023-03-23T14:33:34;92971.09;;;25.62;29.27
74336;BME280;62755;-33.398;-70.572;2023-03-23T14:36:24;92982.72;;;25.79;29.06
74336;BME280;62755;-33.398;-70.572;2023-03-23T14:39:19;92983.41;;;25.85;29.09
74336;BME280;62755;-33.398;-70.572;2023-03-23T14:42:13;92989.84;;;25.93;28.69
74336;BME280;62755;-33.398;-70.572;2023-03-23T14:45:05;92980.09;;;25.98;28.86